Time;durP1;ratioP1;P1;durP2;ratioP2;P2;SDS_P1;SDS_P2;PMS_P1;PMS_P2;Temp;Humidity;BMP_temperature;BMP_pressure;BME280_temperature;BME280_humidity;BME280_pressure;Samples;Min_cycle;Max_cycle;Signal;HPM_P1;HPM_P2
2021/07/27 00:00:36;;;;;;;;;19.80;18.00;;;;;27.70;51.33;98359.97;6113264;28;99373;-62
2021/07/27 00:03:41;;;;;;;;;19.00;19.00;;;;;27.68;51.57;98359.50;6123750;28;96674;-63
2021/07/27 00:06:44;;;;;;;;;19.00;18.00;;;;;27.60;52.05;98361.25;6138335;28;96458;-63
2021/07/27 00:09:47;;;;;;;;;19.00;19.00;;;;;27.62;51.61;98371.97;6123928;28;97554;-63
2021/07/27 00:12:52;;;;;;;;;20.50;19.00;;;;;27.55;51.72;98378.91;6132483;28;96686;-62
2021/07/27 00:15:55;;;;;;;;;19.00;18.00;;;;;27.54;51.78;98401.38;6137120;28;96708;-63
2021/07/27 00:18:59;;;;;;;;;24.00;20.40;;;;;27.47;52.02;98431.56;6134340;28;97353;-62
2021/07/27 00:22:02;;;;;;;;;20.00;18.00;;;;;27.46;52.40;98457.66;6135938;28;96604;-63
2021/07/27 00:25:07;;;;;;;;;18.40;17.40;;;;;27.45;52.72;98473.47;6137849;28;97500;-62
2021/07/27 00:28:12;;;;;;;;;19.00;18.00;;;;;27.48;52.75;98470.00;6136298;28;96670;-63
2021/07/27 00:31:16;;;;;;;;;17.75;16.00;;;;;27.47;53.13;98498.81;6131124;28;98146;-62
2021/07/27 00:34:20;;;;;;;;;19.00;17.00;;;;;27.44;53.41;98487.63;6136154;28;96644;-63
2021/07/27 00:37:28;;;;;;;;;16.40;16.00;;;;;27.44;53.24;98460.75;6119606;28;97134;-62
2021/07/27 00:40:31;;;;;;;;;17.80;16.00;;;;;27.52;53.06;98459.06;6134525;28;97486;-63
2021/07/27 00:43:36;;;;;;;;;18.20;17.00;;;;;27.53;52.98;98466.22;6118944;28;97162;-63
2021/07/27 00:46:39;;;;;;;;;18.00;16.75;;;;;27.54;52.90;98465.88;6102196;28;97897;-62
2021/07/27 00:49:46;;;;;;;;;14.00;13.00;;;;;27.57;52.81;98440.28;6111263;28;97267;-62
2021/07/27 00:52:49;;;;;;;;;18.00;16.00;;;;;27.57;52.64;98411.75;6123504;28;98039;-63
2021/07/27 00:55:53;;;;;;;;;17.00;16.00;;;;;27.58;53.02;98425.28;6121612;28;97423;-62
2021/07/27 00:58:58;;;;;;;;;17.25;16.50;;;;;27.60;52.86;98424.94;6110236;28;97269;-63
2021/07/27 01:02:02;;;;;;;;;15.00;15.00;;;;;27.62;52.75;98419.84;6135907;28;97613;-63
2021/07/27 01:05:06;;;;;;;;;18.00;16.00;;;;;27.61;52.74;98412.72;6142008;28;97163;-62
2021/07/27 01:08:09;;;;;;;;;16.00;15.80;;;;;27.60;52.71;98397.25;6132152;28;96655;-62
2021/07/27 01:11:23;;;;;;;;;14.80;13.00;;;;;27.62;51.92;98396.88;6129988;28;98488;-63
2021/07/27 01:14:28;;;;;;;;;15.00;13.25;;;;;27.61;50.69;98373.94;6114335;28;98541;-62
2021/07/27 01:17:31;;;;;;;;;11.25;10.25;;;;;27.58;50.53;98369.91;6121125;28;97244;-62
2021/07/27 01:20:46;;;;;;;;;12.60;11.60;;;;;27.50;50.79;98361.72;6140864;28;97861;-62
2021/07/27 01:37:37;;;;;;;;;10.60;9.80;;;;;27.25;50.50;98391.28;6140240;28;97081;-63
2021/07/27 01:40:48;;;;;;;;;10.20;10.20;;;;;27.02;51.35;98387.31;6138344;28;98205;-64
2021/07/27 01:43:52;;;;;;;;;12.50;11.50;;;;;26.99;51.37;98385.22;6138145;28;97450;-62
2021/07/27 01:46:56;;;;;;;;;11.40;11.00;;;;;27.01;52.02;98397.56;6140173;28;96601;-63
2021/07/27 01:49:59;;;;;;;;;10.00;9.80;;;;;26.91;52.45;98402.72;6122501;28;99942;-63
2021/07/27 01:53:25;;;;;;;;;12.80;11.00;;;;;26.85;52.51;98402.09;6138504;28;97124;-63
2021/07/27 01:56:31;;;;;;;;;11.20;10.60;;;;;26.76;52.51;98414.38;6122505;28;97191;-63
2021/07/27 01:59:34;;;;;;;;;12.50;11.50;;;;;26.75;52.59;98419.09;6113728;28;96926;-62
2021/07/27 02:02:38;;;;;;;;;13.00;12.00;;;;;26.75;53.07;98432.94;6140828;28;96768;-62
2021/07/27 02:05:42;;;;;;;;;11.00;11.00;;;;;26.78;52.84;98448.06;6122547;28;97218;-62
2021/07/27 02:08:45;;;;;;;;;13.00;12.00;;;;;26.81;52.56;98470.28;6128103;28;97456;-63
2021/07/27 02:11:54;;;;;;;;;13.00;12.40;;;;;26.82;52.82;98465.56;6109212;28;96759;-63
2021/07/27 02:15:05;;;;;;;;;12.00;12.00;;;;;26.85;52.69;98490.59;6112830;28;98405;-62
2021/07/27 02:18:09;;;;;;;;;16.00;14.00;;;;;26.86;52.74;98497.78;6137088;28;97417;-62
2021/07/27 02:21:12;;;;;;;;;16.00;14.40;;;;;26.90;52.82;98518.09;6131516;28;97381;-62
2021/07/27 02:24:16;;;;;;;;;14.00;12.60;;;;;26.86;52.63;98516.31;6136949;28;97707;-63
2021/07/27 02:27:20;;;;;;;;;13.00;11.60;;;;;26.83;52.63;98553.72;6141083;28;97226;-63
2021/07/27 02:30:25;;;;;;;;;15.00;12.20;;;;;26.84;53.08;98557.31;6117413;28;97000;-63
2021/07/27 02:33:29;;;;;;;;;15.40;15.00;;;;;26.82;53.73;98585.31;6129589;28;97466;-63
2021/07/27 02:36:33;;;;;;;;;17.80;16.00;;;;;26.94;53.32;98570.78;6132848;28;97467;-63
2021/07/27 02:39:36;;;;;;;;;16.60;16.60;;;;;26.91;53.82;98577.00;6138562;28;97331;-62
2021/07/27 02:42:41;;;;;;;;;16.60;16.60;;;;;27.05;53.95;98555.41;6130143;28;97528;-63
2021/07/27 02:45:44;;;;;;;;;15.40;14.00;;;;;27.06;53.94;98562.56;6140121;28;96473;-62
2021/07/27 02:49:00;;;;;;;;;17.00;16.40;;;;;26.94;54.14;98588.19;6135796;28;97262;-62
2021/07/27 02:52:06;;;;;;;;;14.20;14.20;;;;;26.92;54.45;98542.66;6138837;28;96835;-62
2021/07/27 02:55:11;;;;;;;;;17.50;17.00;;;;;26.77;54.53;98523.88;6121351;28;98527;-63
2021/07/27 02:58:33;;;;;;;;;15.00;13.80;;;;;26.97;53.71;98545.22;6127398;28;96806;-63
2021/07/27 03:13:28;;;;;;;;;14.40;14.00;;;;;26.89;54.46;98483.25;6126125;28;97053;-62
2021/07/27 03:16:34;;;;;;;;;16.40;15.00;;;;;26.88;54.13;98491.94;6113133;28;98601;-62
2021/07/27 03:19:38;;;;;;;;;16.00;15.00;;;;;26.84;53.86;98515.81;6120585;28;98203;-61
2021/07/27 03:22:41;;;;;;;;;15.00;14.00;;;;;26.79;54.19;98507.72;6121398;28;97827;-61
2021/07/27 03:25:44;;;;;;;;;16.60;15.60;;;;;26.72;54.57;98511.84;6139427;28;97118;-62
2021/07/27 03:28:48;;;;;;;;;14.60;14.00;;;;;26.72;54.35;98506.31;6123158;28;96655;-62
2021/07/27 03:31:53;;;;;;;;;18.00;16.60;;;;;26.66;54.57;98504.91;6129358;28;97135;-62
2021/07/27 03:34:56;;;;;;;;;16.00;15.00;;;;;26.63;55.05;98496.47;6127305;28;97098;-62
2021/07/27 03:38:00;;;;;;;;;17.40;16.00;;;;;26.53;55.46;98483.88;6137390;28;97003;-61
2021/07/27 03:41:04;;;;;;;;;16.00;15.00;;;;;26.49;55.45;98482.06;6133856;28;97033;-61
2021/07/27 03:44:07;;;;;;;;;15.00;14.00;;;;;26.40;55.24;98497.91;6126816;28;97533;-61
2021/07/27 03:47:12;;;;;;;;;17.40;16.00;;;;;26.41;55.46;98494.00;6135352;28;97484;-62
2021/07/27 03:50:16;;;;;;;;;17.00;15.00;;;;;26.48;55.22;98486.00;6132712;28;97153;-63
2021/07/27 03:53:20;;;;;;;;;15.00;14.00;;;;;26.39;55.13;98486.03;6104345;28;96856;-62
2021/07/27 03:56:23;;;;;;;;;16.80;14.80;;;;;26.50;54.85;98481.75;6131094;28;96717;-62
2021/07/27 03:59:26;;;;;;;;;17.20;14.00;;;;;26.60;54.72;98486.88;6138095;28;97174;-61
2021/07/27 04:02:32;;;;;;;;;16.50;15.00;;;;;26.61;54.30;98488.50;6113754;28;96801;-61
2021/07/27 04:05:36;;;;;;;;;15.00;14.00;;;;;26.46;54.88;98477.22;6138943;28;96852;-62
2021/07/27 04:08:39;;;;;;;;;14.00;13.00;;;;;26.56;54.47;98474.88;6139103;28;97385;-61
2021/07/27 04:11:42;;;;;;;;;13.25;13.25;;;;;26.54;54.35;98479.13;6137227;28;96630;-62
2021/07/27 04:14:46;;;;;;;;;17.00;16.00;;;;;26.63;54.16;98483.44;6138883;28;97582;-62
2021/07/27 04:17:51;;;;;;;;;14.00;14.00;;;;;26.72;53.74;98483.38;6125935;28;97524;-61
2021/07/27 04:20:56;;;;;;;;;15.00;14.00;;;;;26.63;53.09;98480.66;6120402;28;97453;-62
2021/07/27 04:24:00;;;;;;;;;14.00;12.00;;;;;26.64;52.64;98464.88;6140496;28;96946;-62
2021/07/27 04:27:04;;;;;;;;;14.00;13.75;;;;;26.74;52.42;98448.72;6132382;28;97566;-61
2021/07/27 04:30:08;;;;;;;;;15.00;13.00;;;;;26.88;51.59;98445.69;6128961;28;96656;-61
2021/07/27 04:33:13;;;;;;;;;13.00;12.40;;;;;26.87;51.43;98448.81;6142616;28;97499;-62
2021/07/27 04:36:16;;;;;;;;;12.00;11.00;;;;;26.86;51.13;98444.38;6133530;28;97203;-61
2021/07/27 04:39:19;;;;;;;;;13.40;12.40;;;;;26.87;51.38;98434.97;6127073;28;96849;-62
2021/07/27 04:42:23;;;;;;;;;14.00;13.00;;;;;26.86;51.26;98452.69;6125316;28;98211;-62
2021/07/27 04:45:27;;;;;;;;;15.00;13.40;;;;;26.92;50.88;98443.88;6131338;28;97220;-61
2021/07/27 04:48:31;;;;;;;;;12.50;12.00;;;;;27.06;50.92;98449.13;6135607;28;97154;-62
2021/07/27 04:51:37;;;;;;;;;13.40;12.60;;;;;27.09;50.63;98453.97;6137168;28;97499;-62
2021/07/27 04:54:50;;;;;;;;;14.00;13.00;;;;;27.37;50.76;98457.72;6141854;28;96982;-62
2021/07/27 04:57:55;;;;;;;;;14.00;12.00;;;;;27.63;50.54;98453.88;6116391;28;97316;-62
2021/07/27 05:01:02;;;;;;;;;14.00;13.00;;;;;27.82;49.79;98443.06;6138718;28;97460;-61
2021/07/27 05:04:08;;;;;;;;;14.60;14.60;;;;;28.08;48.83;98446.31;6137830;28;97666;-64
2021/07/27 05:07:11;;;;;;;;;13.00;13.00;;;;;28.23;47.79;98447.59;6124312;28;97696;-62
2021/07/27 05:10:15;;;;;;;;;12.00;11.00;;;;;28.40;48.38;98439.00;6133440;28;96731;-63
2021/07/27 05:13:18;;;;;;;;;13.75;13.25;;;;;28.61;48.21;98439.66;6142380;28;96783;-63
2021/07/27 05:16:22;;;;;;;;;14.00;12.00;;;;;28.73;46.94;98425.78;6122274;28;97450;-63
2021/07/27 05:19:26;;;;;;;;;13.50;13.50;;;;;28.87;47.16;98428.16;6141387;28;97552;-64
2021/07/27 05:22:30;;;;;;;;;13.50;12.50;;;;;28.86;46.81;98423.78;6124410;28;96667;-63
2021/07/27 05:25:34;;;;;;;;;15.00;15.00;;;;;28.88;47.10;98420.66;6136817;28;96443;-63
2021/07/27 05:28:37;;;;;;;;;12.00;10.00;;;;;28.95;46.77;98407.78;6135921;28;96569;-63
2021/07/27 05:31:40;;;;;;;;;13.00;13.00;;;;;29.01;45.91;98414.69;6124720;28;97157;-63
2021/07/27 05:34:45;;;;;;;;;12.60;12.00;;;;;28.94;45.92;98417.25;6123085;28;97533;-62
2021/07/27 05:37:48;;;;;;;;;11.50;11.50;;;;;28.99;46.28;98422.53;6133831;28;97878;-64
2021/07/27 05:40:52;;;;;;;;;13.00;13.00;;;;;29.11;46.59;98427.25;6131340;28;96627;-64
2021/07/27 05:43:56;;;;;;;;;10.25;10.00;;;;;29.18;45.23;98432.97;6136190;28;97395;-64
2021/07/27 05:47:00;;;;;;;;;12.00;11.00;;;;;29.21;44.44;98426.72;6120933;28;97522;-62
2021/07/27 05:50:09;;;;;;;;;13.00;12.20;;;;;29.26;44.75;98437.56;6120764;28;96740;-62
2021/07/27 05:53:12;;;;;;;;;12.80;11.00;;;;;29.27;44.31;98433.63;6126122;28;97146;-63
2021/07/27 05:56:15;;;;;;;;;14.00;13.00;;;;;29.50;44.85;98437.47;6128974;28;97706;-64
2021/07/27 05:59:19;;;;;;;;;10.67;10.00;;;;;29.62;43.93;98434.59;6120055;28;97957;-63
2021/07/27 06:02:23;;;;;;;;;10.75;10.00;;;;;29.73;44.25;98437.63;6137072;28;96546;-63
2021/07/27 06:05:28;;;;;;;;;10.00;10.00;;;;;29.86;42.67;98450.25;6137717;28;97630;-63
2021/07/27 06:08:31;;;;;;;;;13.50;12.00;;;;;30.09;42.58;98453.25;6114025;28;97743;-63
2021/07/27 06:11:35;;;;;;;;;11.00;9.00;;;;;30.32;42.50;98465.31;6126646;28;97643;-63
2021/07/27 06:14:39;;;;;;;;;9.80;9.00;;;;;30.57;41.55;98453.97;6105036;28;96903;-62
2021/07/27 06:17:45;;;;;;;;;10.00;10.00;;;;;30.89;42.15;98469.38;6129324;28;97403;-63
2021/07/27 06:20:50;;;;;;;;;11.00;10.25;;;;;31.19;41.92;98486.31;6110534;28;97338;-62
2021/07/27 06:23:53;;;;;;;;;10.00;9.40;;;;;31.42;40.72;98491.97;6137214;28;96650;-62
2021/07/27 06:26:56;;;;;;;;;10.33;10.00;;;;;31.57;38.78;98491.09;6117020;28;97239;-63
2021/07/27 06:30:00;;;;;;;;;10.00;9.60;;;;;31.76;38.49;98502.19;6124746;28;97362;-62
2021/07/27 06:33:03;;;;;;;;;13.60;12.00;;;;;31.95;40.55;98509.69;6134629;28;96660;-64
2021/07/27 06:36:09;;;;;;;;;13.00;12.00;;;;;32.06;43.53;98511.47;6129947;28;96908;-63
2021/07/27 06:39:12;;;;;;;;;14.00;13.00;;;;;32.08;43.69;98513.88;6112379;28;96607;-63
2021/07/27 06:42:15;;;;;;;;;13.00;13.00;;;;;32.00;43.62;98526.13;6123203;28;97165;-64
2021/07/27 06:45:18;;;;;;;;;14.00;13.00;;;;;31.92;44.04;98535.50;6122655;28;96805;-63
2021/07/27 06:48:22;;;;;;;;;15.00;15.00;;;;;31.90;43.61;98530.31;6122466;28;97242;-63
2021/07/27 06:51:26;;;;;;;;;15.00;14.60;;;;;31.88;43.93;98540.22;6129638;28;97963;-63
2021/07/27 06:54:30;;;;;;;;;15.00;14.00;;;;;31.78;43.69;98539.66;6129253;28;97614;-62
2021/07/27 06:57:33;;;;;;;;;16.50;16.00;;;;;31.42;43.04;98545.72;6138680;28;97520;-63
2021/07/27 07:00:39;;;;;;;;;18.60;17.00;;;;;31.20;43.52;98543.66;6137002;28;97631;-63
2021/07/27 07:03:43;;;;;;;;;17.00;16.00;;;;;31.06;43.70;98558.06;6138473;28;97271;-63
2021/07/27 07:06:48;;;;;;;;;16.60;15.00;;;;;30.82;43.65;98556.34;6138159;28;98543;-63
2021/07/27 07:09:51;;;;;;;;;18.00;16.60;;;;;30.81;44.53;98565.03;6117577;28;96578;-63
2021/07/27 07:12:55;;;;;;;;;17.60;16.60;;;;;30.79;45.29;98576.53;6136240;28;97134;-62
2021/07/27 07:15:59;;;;;;;;;15.60;14.60;;;;;30.72;46.00;98579.16;6119803;28;99651;-62
2021/07/27 07:19:02;;;;;;;;;18.00;15.00;;;;;30.74;46.69;98587.16;6136389;28;96667;-62
2021/07/27 07:22:08;;;;;;;;;15.00;14.00;;;;;30.70;46.65;98594.59;6137100;28;96507;-63
2021/07/27 07:25:12;;;;;;;;;15.40;14.40;;;;;30.59;45.16;98605.47;6125166;28;96573;-63
2021/07/27 07:28:15;;;;;;;;;12.20;11.80;;;;;30.53;44.53;98595.78;6134221;28;97158;-62
2021/07/27 07:31:19;;;;;;;;;14.00;13.00;;;;;30.40;44.20;98597.00;6132389;28;96755;-63
2021/07/27 07:34:22;;;;;;;;;15.00;14.00;;;;;30.21;44.64;98608.03;6137253;28;97416;-63
2021/07/27 07:37:27;;;;;;;;;14.40;14.00;;;;;30.05;45.04;98610.81;6118427;28;97124;-63
2021/07/27 07:40:32;;;;;;;;;14.00;13.20;;;;;29.89;45.89;98610.78;6136917;28;96565;-63
2021/07/27 07:43:35;;;;;;;;;14.60;13.00;;;;;29.77;45.68;98621.91;6113648;28;97562;-62
2021/07/27 07:46:38;;;;;;;;;14.40;13.00;;;;;29.74;46.43;98619.88;6132369;28;97486;-64
2021/07/27 07:49:42;;;;;;;;;15.75;14.75;;;;;29.68;47.07;98627.63;6118054;28;98504;-63
2021/07/27 07:52:47;;;;;;;;;12.80;12.80;;;;;29.79;47.73;98624.34;6104377;28;96990;-64
2021/07/27 07:55:50;;;;;;;;;15.20;14.20;;;;;29.87;48.05;98624.19;6112502;28;96740;-63
2021/07/27 07:58:54;;;;;;;;;15.00;14.00;;;;;30.05;48.13;98619.16;6122648;28;97696;-63
2021/07/27 08:01:59;;;;;;;;;16.00;15.00;;;;;30.22;47.85;98612.44;6122207;28;97114;-63
2021/07/27 08:05:03;;;;;;;;;16.50;13.50;;;;;30.38;45.76;98618.81;6122637;28;97475;-63
2021/07/27 08:08:07;;;;;;;;;15.00;14.00;;;;;30.58;44.68;98623.34;6124664;28;97865;-63
2021/07/27 08:11:12;;;;;;;;;15.00;14.00;;;;;30.70;44.88;98623.22;6119548;28;96787;-64
2021/07/27 08:14:15;;;;;;;;;16.00;14.00;;;;;31.10;44.42;98634.13;6120014;28;97219;-63
2021/07/27 08:17:19;;;;;;;;;14.00;13.00;;;;;31.32;43.03;98629.88;6116692;28;97247;-62
2021/07/27 08:20:22;;;;;;;;;15.60;14.60;;;;;31.62;43.24;98632.91;6118231;28;96671;-63
2021/07/27 08:23:27;;;;;;;;;16.00;14.00;;;;;31.89;42.88;98640.22;6132246;28;97575;-63
2021/07/27 08:26:31;;;;;;;;;16.00;15.00;;;;;31.94;41.46;98633.53;6125359;28;97440;-61
2021/07/27 08:29:34;;;;;;;;;15.25;14.00;;;;;32.01;41.59;98639.28;6135675;28;97479;-62
2021/07/27 08:32:44;;;;;;;;;16.75;16.00;;;;;31.95;41.57;98649.09;6129737;28;97560;-62
2021/07/27 08:35:48;;;;;;;;;15.25;15.00;;;;;31.97;41.43;98649.53;6118979;28;98582;-62
2021/07/27 08:38:52;;;;;;;;;16.25;14.00;;;;;32.04;41.43;98650.47;6136317;28;97830;-63
2021/07/27 08:41:59;;;;;;;;;17.00;16.00;;;;;32.18;41.58;98656.34;6134800;28;97707;-63
2021/07/27 08:45:06;;;;;;;;;15.60;15.60;;;;;32.21;41.16;98654.78;6080590;28;98623;-62
2021/07/27 08:48:09;;;;;;;;;16.00;15.60;;;;;32.18;41.57;98656.34;6132445;28;97119;-62
2021/07/27 08:51:16;;;;;;;;;15.00;14.00;;;;;32.46;40.78;98658.03;6133092;28;97231;-62
2021/07/27 08:54:21;;;;;;;;;15.40;14.00;;;;;32.62;40.77;98647.56;6130469;28;98001;-62
2021/07/27 08:57:24;;;;;;;;;16.00;15.00;;;;;32.73;40.25;98658.94;6117861;28;96956;-63
2021/07/27 09:00:29;;;;;;;;;17.60;15.60;;;;;32.71;39.82;98662.09;6132386;28;96531;-62
2021/07/27 09:03:32;;;;;;;;;17.00;17.00;;;;;32.67;40.04;98650.88;6119325;28;96743;-62
2021/07/27 09:06:37;;;;;;;;;17.60;17.00;;;;;32.71;40.16;98655.69;6133836;28;97396;-62
2021/07/27 09:09:43;;;;;;;;;19.40;17.60;;;;;32.53;40.41;98663.75;6135847;28;97515;-62
2021/07/27 09:12:53;;;;;;;;;17.00;16.60;;;;;32.55;41.16;98664.16;6137926;28;98082;-62
2021/07/27 09:15:58;;;;;;;;;19.40;18.00;;;;;32.44;40.44;98644.47;6135182;28;97565;-61
2021/07/27 09:19:02;;;;;;;;;18.00;16.50;;;;;32.68;40.69;98657.28;6125047;28;97097;-63
2021/07/27 09:22:05;;;;;;;;;21.40;20.40;;;;;32.71;40.55;98659.31;6132545;28;96608;-62
2021/07/27 09:25:11;;;;;;;;;25.00;22.00;;;;;32.71;41.33;98664.06;6138874;28;97093;-62
2021/07/27 09:28:15;;;;;;;;;25.00;24.00;;;;;32.70;41.72;98662.47;6129540;28;96695;-63
2021/07/27 09:31:26;;;;;;;;;22.00;19.40;;;;;32.67;41.60;98664.84;6128420;28;97881;-63
2021/07/27 09:34:30;;;;;;;;;20.40;18.00;;;;;32.43;41.34;98664.38;6139639;28;97794;-62
2021/07/27 09:37:34;;;;;;;;;22.40;19.80;;;;;32.34;41.80;98673.00;6103614;28;99100;-63
2021/07/27 09:40:49;;;;;;;;;19.40;18.00;;;;;32.31;42.88;98684.06;6121195;28;97552;-63
2021/07/27 09:44:14;;;;;;;;;23.40;22.40;;;;;32.05;42.55;98680.00;6115155;28;98580;-63
2021/07/27 09:47:18;;;;;;;;;20.00;19.00;;;;;31.79;42.45;98677.88;6131343;28;96798;-63
2021/07/27 09:50:23;;;;;;;;;19.25;19.00;;;;;31.68;43.00;98692.75;6137515;28;97240;-63
2021/07/27 09:53:26;;;;;;;;;21.40;20.00;;;;;31.61;43.02;98696.22;6134529;28;98082;-62
2021/07/27 09:56:31;;;;;;;;;21.60;18.20;;;;;31.35;43.48;98694.00;6118401;28;97427;-63
2021/07/27 09:59:35;;;;;;;;;24.00;21.40;;;;;31.29;44.18;98694.63;6135643;28;97487;-63
2021/07/27 10:02:42;;;;;;;;;21.00;20.00;;;;;31.24;44.50;98701.31;6141007;28;97572;-62
2021/07/27 10:05:53;;;;;;;;;19.20;18.00;;;;;31.32;44.04;98694.75;6122587;28;97558;-63
2021/07/27 10:08:57;;;;;;;;;18.80;17.80;;;;;31.44;43.82;98696.56;6140803;28;97465;-62
2021/07/27 10:12:11;;;;;;;;;20.40;19.40;;;;;31.47;43.40;98698.66;6128983;28;96551;-63
2021/07/27 10:15:16;;;;;;;;;22.20;20.80;;;;;31.58;43.36;98699.72;6127805;28;97285;-63
2021/07/27 10:18:31;;;;;;;;;20.00;18.00;;;;;31.64;43.19;98694.66;6128598;28;96851;-62
2021/07/27 10:21:34;;;;;;;;;22.00;20.00;;;;;31.65;43.18;98688.72;6117416;28;96904;-63
2021/07/27 10:24:40;;;;;;;;;21.00;20.00;;;;;31.72;42.77;98693.63;6136741;28;97484;-63
2021/07/27 10:27:53;;;;;;;;;21.60;19.00;;;;;31.88;42.48;98690.78;6137721;28;96866;-62
2021/07/27 10:31:04;;;;;;;;;19.20;19.00;;;;;32.05;41.78;98688.34;6137435;28;98008;-62
2021/07/27 10:34:09;;;;;;;;;23.40;21.00;;;;;32.20;41.82;98686.69;6134341;28;98130;-63
2021/07/27 10:37:13;;;;;;;;;19.60;17.60;;;;;32.28;41.88;98685.63;6133669;28;97395;-62
2021/07/27 10:40:28;;;;;;;;;22.00;21.00;;;;;32.54;42.01;98682.94;6137130;28;97107;-62
2021/07/27 10:43:33;;;;;;;;;23.00;20.60;;;;;32.73;41.63;98676.50;6136748;28;96719;-63
2021/07/27 10:46:39;;;;;;;;;23.00;21.00;;;;;32.84;41.39;98673.88;6134540;28;97608;-63
2021/07/27 10:49:43;;;;;;;;;21.00;20.00;;;;;33.04;41.00;98670.59;6115409;28;97269;-62
2021/07/27 10:52:50;;;;;;;;;24.00;21.00;;;;;33.31;40.82;98677.03;6137174;28;98151;-62
2021/07/27 10:55:54;;;;;;;;;23.25;21.00;;;;;33.44;39.79;98684.00;6133910;28;96713;-62
2021/07/27 10:59:00;;;;;;;;;21.60;21.00;;;;;33.58;40.02;98683.38;6136345;28;98087;-62
2021/07/27 11:02:11;;;;;;;;;23.00;21.00;;;;;33.81;39.49;98691.72;6115401;28;98510;-62
2021/07/27 11:05:24;;;;;;;;;20.80;19.80;;;;;34.19;39.23;98688.59;6129148;28;97778;-63
2021/07/27 11:08:27;;;;;;;;;23.00;20.00;;;;;34.61;38.39;98687.41;6116018;28;99156;-63
2021/07/27 11:11:31;;;;;;;;;20.60;20.00;;;;;34.75;38.27;98670.75;6110503;28;96706;-62
2021/07/27 11:14:36;;;;;;;;;24.00;22.00;;;;;34.87;37.26;98667.66;6125040;28;97460;-63
2021/07/27 11:17:44;;;;;;;;;23.00;21.00;;;;;35.29;38.06;98677.56;6117807;28;97590;-62
2021/07/27 11:20:47;;;;;;;;;22.00;21.50;;;;;35.31;36.84;98662.00;6132969;28;96555;-63
2021/07/27 11:23:51;;;;;;;;;21.00;20.00;;;;;35.61;36.45;98651.34;6134333;28;97445;-62
2021/07/27 11:26:56;;;;;;;;;21.00;20.00;;;;;35.76;36.12;98626.19;6134081;28;96753;-63
2021/07/27 11:30:02;;;;;;;;;22.00;20.00;;;;;36.15;35.81;98646.78;6135681;28;97408;-63
2021/07/27 11:33:09;;;;;;;;;23.50;21.50;;;;;36.33;36.08;98644.78;6132631;28;97460;-63
2021/07/27 11:36:21;;;;;;;;;21.60;21.00;;;;;36.29;35.35;98637.56;6134709;28;97145;-63
2021/07/27 11:39:25;;;;;;;;;20.00;19.00;;;;;36.15;34.88;98624.31;6135786;28;96800;-62
2021/07/27 11:42:31;;;;;;;;;18.20;18.00;;;;;35.97;34.69;98626.25;6133170;28;97433;-63
2021/07/27 11:45:37;;;;;;;;;20.60;19.60;;;;;36.10;35.41;98629.47;6128355;28;97464;-63
2021/07/27 11:48:43;;;;;;;;;22.00;19.00;;;;;36.14;35.19;98641.53;6135754;28;98631;-63
2021/07/27 11:52:00;;;;;;;;;21.00;20.00;;;;;36.22;35.02;98632.72;6114831;28;98134;-63
2021/07/27 11:55:06;;;;;;;;;25.00;22.00;;;;;35.89;35.21;98631.03;6130915;28;96829;-63
2021/07/27 11:58:12;;;;;;;;;22.50;21.00;;;;;36.17;36.06;98640.75;6129694;28;96737;-62
2021/07/27 12:01:16;;;;;;;;;27.80;23.00;;;;;36.21;35.84;98642.38;6136668;28;97187;-63
2021/07/27 12:04:20;;;;;;;;;19.40;19.00;;;;;36.37;34.17;98637.16;6124524;28;97437;-63
2021/07/27 12:07:24;;;;;;;;;19.00;17.00;;;;;36.34;32.99;98640.78;6133643;28;97452;-62
2021/07/27 12:10:28;;;;;;;;;20.00;19.60;;;;;36.41;35.05;98639.97;6117986;28;97250;-63
2021/07/27 12:13:31;;;;;;;;;23.00;21.80;;;;;36.63;34.47;98641.63;6117171;28;96770;-62
2021/07/27 12:16:36;;;;;;;;;16.00;16.00;;;;;36.61;32.71;98637.59;6133623;28;96655;-63
2021/07/27 12:19:39;;;;;;;;;20.00;19.80;;;;;36.63;33.11;98624.78;6122900;28;96952;-63
2021/07/27 12:22:42;;;;;;;;;18.00;17.40;;;;;36.48;32.60;98623.16;6118771;28;97496;-62
2021/07/27 12:25:46;;;;;;;;;20.00;18.00;;;;;36.46;33.73;98603.06;6128668;28;96791;-63
2021/07/27 12:28:49;;;;;;;;;18.00;17.25;;;;;36.72;33.61;98605.50;6133140;28;96419;-62
2021/07/27 12:31:54;;;;;;;;;20.00;19.00;;;;;36.68;33.11;98610.34;6136401;28;97324;-63
2021/07/27 12:34:57;;;;;;;;;19.00;17.00;;;;;36.58;32.79;98616.72;6135807;28;97460;-63
2021/07/27 12:38:00;;;;;;;;;19.80;18.80;;;;;36.44;33.25;98611.91;6136970;28;96505;-63
2021/07/27 12:41:04;;;;;;;;;17.00;16.00;;;;;36.36;33.14;98610.28;6137402;28;97108;-62
2021/07/27 12:44:08;;;;;;;;;15.00;15.00;;;;;36.42;32.52;98605.09;6138469;28;96982;-63
2021/07/27 12:47:13;;;;;;;;;16.00;16.00;;;;;36.43;32.36;98601.88;6133904;28;97364;-62
2021/07/27 12:50:16;;;;;;;;;17.00;16.00;;;;;36.49;31.93;98610.72;6140711;28;96773;-63
2021/07/27 12:53:22;;;;;;;;;20.20;18.00;;;;;36.65;33.08;98599.91;6140092;28;97972;-63
2021/07/27 12:56:25;;;;;;;;;18.00;17.60;;;;;36.87;32.27;98603.50;6140667;28;96671;-62
2021/07/27 12:59:30;;;;;;;;;20.50;17.50;;;;;36.99;31.87;98610.72;6140778;28;97216;-63
2021/07/27 13:02:35;;;;;;;;;18.00;18.00;;;;;37.14;32.79;98599.03;6141242;28;97147;-63
2021/07/27 13:05:39;;;;;;;;;18.60;17.00;;;;;37.37;32.12;98601.41;6140530;28;97599;-63
2021/07/27 13:08:43;;;;;;;;;18.00;18.00;;;;;37.52;31.72;98610.59;6126968;28;97423;-62
2021/07/27 13:11:47;;;;;;;;;20.00;18.00;;;;;37.72;31.10;98611.72;6139996;28;97493;-62
2021/07/27 13:14:51;;;;;;;;;16.75;16.75;;;;;37.62;30.86;98613.38;6124769;28;96680;-63
2021/07/27 13:17:57;;;;;;;;;20.00;17.80;;;;;37.64;31.26;98608.13;6126074;28;97838;-62
2021/07/27 13:21:01;;;;;;;;;16.60;15.60;;;;;37.62;30.87;98604.94;6135227;28;98181;-63
2021/07/27 13:24:05;;;;;;;;;15.80;15.00;;;;;37.64;31.06;98596.06;6130824;28;97306;-62
2021/07/27 13:27:08;;;;;;;;;16.00;15.00;;;;;37.55;31.53;98599.34;6136781;28;96870;-63
2021/07/27 13:30:12;;;;;;;;;17.00;16.00;;;;;37.50;31.14;98598.91;6121943;28;97782;-63
2021/07/27 13:33:17;;;;;;;;;15.25;14.00;;;;;37.29;30.85;98594.16;6121459;28;96748;-65
2021/07/27 13:36:20;;;;;;;;;14.20;14.20;;;;;37.24;31.74;98597.44;6124894;28;96633;-63
2021/07/27 13:39:23;;;;;;;;;16.80;15.40;;;;;37.20;31.30;98603.03;6121160;28;97729;-63
2021/07/27 13:42:26;;;;;;;;;17.00;15.00;;;;;37.34;32.02;98604.22;6120431;28;97408;-63
2021/07/27 13:45:32;;;;;;;;;17.40;16.00;;;;;37.02;31.87;98610.69;6121675;28;98581;-63
2021/07/27 13:48:37;;;;;;;;;16.00;14.00;;;;;36.72;31.93;98613.13;6124890;28;97445;-64
2021/07/27 13:51:40;;;;;;;;;14.00;14.00;;;;;36.40;32.69;98616.72;6129617;28;97479;-63
2021/07/27 13:54:43;;;;;;;;;15.00;13.40;;;;;36.51;32.35;98610.31;6128809;28;97081;-63
2021/07/27 13:57:47;;;;;;;;;17.00;14.25;;;;;36.45;30.71;98609.91;6120471;28;96736;-62
2021/07/27 14:00:50;;;;;;;;;17.00;16.00;;;;;36.38;31.88;98602.28;6129798;28;97574;-64
2021/07/27 14:03:55;;;;;;;;;11.40;11.40;;;;;36.38;31.49;98593.06;6122007;28;96759;-62
2021/07/27 14:06:58;;;;;;;;;13.60;13.40;;;;;36.55;31.59;98583.84;6139376;28;97602;-63
2021/07/27 14:10:03;;;;;;;;;16.00;14.00;;;;;36.60;31.25;98566.59;6130394;28;96503;-62
2021/07/27 14:13:07;;;;;;;;;14.00;13.20;;;;;36.76;30.81;98560.56;6129166;28;97384;-63
2021/07/27 14:16:10;;;;;;;;;12.00;11.00;;;;;36.95;30.64;98548.09;6125484;28;97450;-63
2021/07/27 14:19:15;;;;;;;;;11.00;11.00;;;;;37.09;30.44;98551.69;6128616;28;97357;-63
2021/07/27 14:22:18;;;;;;;;;13.00;13.00;;;;;37.15;30.22;98558.47;6119370;28;96792;-63
2021/07/27 14:25:24;;;;;;;;;13.00;12.00;;;;;37.17;29.28;98558.88;6124570;28;96921;-62
2021/07/27 14:28:27;;;;;;;;;14.00;12.40;;;;;36.97;30.37;98563.34;6120896;28;96766;-63
2021/07/27 14:31:31;;;;;;;;;13.00;12.00;;;;;36.98;30.46;98572.56;6128239;28;98258;-62
2021/07/27 14:34:39;;;;;;;;;14.00;13.00;;;;;36.91;31.17;98576.19;6110623;28;97742;-63